createdAt,value
2019-05-23T00:03:24.278Z,2.77
2019-05-23T00:08:43.185Z,2.93
2019-05-23T00:13:49.766Z,3.13
2019-05-23T00:18:51.891Z,3.00
2019-05-23T00:23:51.605Z,2.80
2019-05-23T00:29:08.708Z,3.90
2019-05-23T00:33:56.727Z,3.40
2019-05-23T00:38:56.946Z,3.20
2019-05-23T00:43:56.878Z,2.80
2019-05-23T00:48:56.606Z,4.20
2019-05-23T00:53:57.183Z,3.03
2019-05-23T00:58:57.581Z,4.63
2019-05-23T01:03:57.387Z,2.60
2019-05-23T01:08:57.090Z,3.77
2019-05-23T01:13:58.405Z,2.77
2019-05-23T01:19:00.025Z,3.57
2019-05-23T01:24:04.953Z,4.60
2019-05-23T01:29:04.863Z,4.23
2019-05-23T01:34:06.511Z,3.30
2019-05-23T01:39:12.201Z,2.50
2019-05-23T01:44:14.029Z,3.43
2019-05-23T01:49:15.165Z,4.60
2019-05-23T01:54:27.260Z,3.33
2019-05-23T01:59:27.313Z,2.90
2019-05-23T02:04:32.493Z,3.50
2019-05-23T02:09:32.871Z,3.10
2019-05-23T02:14:33.302Z,5.00
2019-05-23T02:19:33.685Z,4.53
2019-05-23T02:24:34.208Z,4.13
2019-05-23T02:29:34.661Z,5.00
2019-05-23T02:34:34.494Z,4.00
2019-05-23T02:39:51.624Z,4.60
2019-05-23T02:44:52.491Z,4.13
2019-05-23T02:49:55.578Z,4.00
2019-05-23T02:54:55.952Z,3.60
2019-05-23T03:00:03.541Z,4.00
2019-05-23T03:05:06.455Z,3.43
2019-05-23T03:10:09.435Z,5.07
2019-05-23T03:15:10.874Z,4.43
2019-05-23T03:20:11.237Z,3.77
2019-05-23T03:26:02.276Z,3.83
2019-05-23T03:31:27.037Z,2.60
2019-05-23T03:36:08.768Z,8.53
2019-05-23T03:41:08.402Z,4.00
2019-05-23T03:46:10.724Z,3.90
2019-05-23T03:51:10.867Z,3.60
2019-05-23T03:56:11.117Z,5.60
2019-05-23T04:01:12.575Z,4.83
2019-05-23T04:06:12.641Z,5.73
2019-05-23T04:11:12.510Z,6.03
2019-05-23T04:16:12.135Z,4.30
2019-05-23T04:21:12.110Z,5.27
2019-05-23T04:26:12.765Z,5.77
2019-05-23T04:31:13.415Z,9.83
2019-05-23T04:36:13.706Z,5.70
2019-05-23T04:41:13.599Z,4.23
2019-05-23T04:46:13.556Z,4.57
2019-05-23T04:51:13.409Z,3.33
2019-05-23T04:56:13.594Z,6.63
2019-05-23T05:01:13.894Z,7.27
2019-05-23T05:06:14.722Z,6.77
2019-05-23T05:11:14.695Z,4.23
2019-05-23T05:16:14.318Z,9.83
2019-05-23T05:21:14.438Z,6.70
2019-05-23T05:26:20.809Z,11.73
2019-05-23T05:31:21.274Z,9.37
2019-05-23T05:36:20.976Z,10.20
2019-05-23T05:41:21.141Z,6.27
2019-05-23T05:46:21.340Z,8.40
2019-05-23T05:51:21.589Z,11.83
2019-05-23T05:56:21.234Z,12.50
2019-05-23T06:01:33.332Z,15.30
2019-05-23T06:06:30.751Z,10.83
2019-05-23T06:11:31.382Z,10.77
2019-05-23T06:16:31.678Z,16.23
2019-05-23T06:21:32.158Z,13.33
2019-05-23T06:26:32.473Z,12.03
2019-05-23T06:31:33.538Z,16.00
2019-05-23T06:36:33.871Z,10.73
2019-05-23T06:41:33.958Z,8.30
2019-05-23T06:46:33.904Z,6.50
2019-05-23T06:51:33.671Z,12.53
2019-05-23T06:56:33.615Z,4.70
2019-05-23T07:01:33.522Z,4.47
2019-05-23T07:06:33.166Z,5.63
2019-05-23T07:11:32.865Z,3.33
2019-05-23T07:16:32.660Z,4.93
2019-05-23T07:21:32.722Z,3.23
2019-05-23T07:26:32.806Z,3.37
2019-05-23T07:31:35.526Z,3.30
2019-05-23T07:36:35.494Z,3.20
2019-05-23T07:41:36.010Z,2.43
2019-05-23T07:46:36.283Z,2.60
2019-05-23T07:51:35.904Z,2.90
2019-05-23T07:56:37.266Z,2.00
2019-05-23T08:01:39.444Z,2.20
2019-05-23T08:06:39.238Z,1.73
2019-05-23T08:11:38.921Z,2.30
2019-05-23T08:16:38.650Z,1.30
2019-05-23T08:21:38.611Z,1.73
2019-05-23T08:26:39.085Z,2.20
2019-05-23T08:31:38.887Z,2.70
2019-05-23T08:36:38.778Z,1.70
2019-05-23T08:41:39.459Z,2.87
2019-05-23T08:46:39.342Z,2.53
2019-05-23T08:51:39.603Z,2.30
2019-05-23T08:56:39.629Z,1.73
2019-05-23T09:01:39.772Z,2.50
2019-05-23T09:06:39.777Z,1.80
2019-05-23T09:11:40.127Z,3.43
2019-05-23T09:16:40.489Z,1.93
2019-05-23T09:21:40.166Z,1.80
2019-05-23T09:26:40.077Z,2.30
2019-05-23T09:31:40.591Z,1.47
2019-05-23T09:36:40.206Z,1.80
2019-05-23T09:41:40.068Z,1.77
2019-05-23T09:46:40.754Z,2.03
2019-05-23T09:51:40.446Z,1.63
2019-05-23T09:56:40.499Z,1.90
2019-05-23T10:01:40.198Z,1.53
2019-05-23T10:06:40.494Z,1.60
2019-05-23T10:11:40.277Z,1.10
2019-05-23T10:16:40.169Z,1.37
2019-05-23T10:21:39.829Z,1.60
2019-05-23T10:26:39.539Z,2.73
2019-05-23T10:31:39.174Z,1.40
2019-05-23T10:36:38.810Z,1.90
2019-05-23T10:41:38.569Z,1.20
2019-05-23T10:46:38.740Z,2.40
2019-05-23T10:51:38.341Z,1.40
2019-05-23T10:56:38.781Z,1.33
2019-05-23T11:01:39.354Z,1.63
2019-05-23T11:06:39.258Z,1.73
2019-05-23T11:11:39.134Z,2.00
2019-05-23T11:16:38.906Z,1.10
2019-05-23T11:21:38.697Z,1.63
2019-05-23T11:26:38.536Z,1.30
2019-05-23T11:31:38.674Z,1.20
2019-05-23T11:36:38.434Z,2.63
2019-05-23T11:41:38.375Z,2.40
2019-05-23T11:46:39.698Z,1.50
2019-05-23T11:51:39.752Z,1.50
2019-05-23T11:56:42.297Z,1.00
2019-05-23T12:01:47.879Z,1.83
2019-05-23T12:06:56.685Z,2.10
2019-05-23T12:11:56.420Z,1.70
2019-05-23T12:16:57.129Z,1.60
2019-05-23T12:21:56.939Z,3.93
2019-05-23T12:26:56.658Z,1.50
2019-05-23T12:31:56.959Z,2.50
2019-05-23T12:37:17.006Z,1.47
2019-05-23T12:41:57.978Z,1.13
2019-05-23T12:46:58.013Z,1.23
2019-05-23T12:51:59.320Z,2.53
2019-05-23T12:56:59.163Z,1.37
2019-05-23T13:02:00.930Z,0.90
2019-05-23T13:07:00.878Z,1.43
2019-05-23T13:12:00.573Z,1.17
2019-05-23T13:17:01.469Z,1.40
2019-05-23T13:22:02.106Z,1.10
2019-05-23T13:27:02.103Z,1.93
2019-05-23T13:32:01.801Z,2.00
2019-05-23T13:37:01.889Z,1.50
2019-05-23T13:42:02.199Z,1.40
2019-05-23T13:47:01.970Z,1.63
2019-05-23T13:52:01.686Z,1.30
2019-05-23T13:57:02.242Z,1.60
2019-05-23T14:02:02.402Z,2.27
2019-05-23T14:07:02.697Z,1.90
2019-05-23T14:17:18.408Z,1.10
2019-05-23T14:22:18.559Z,3.97
2019-05-23T14:27:31.519Z,1.37
2019-05-23T14:32:44.315Z,1.33
2019-05-23T14:37:46.345Z,2.50
2019-05-23T14:43:23.595Z,0.90
2019-05-23T14:48:46.114Z,2.13
2019-05-23T14:53:49.331Z,2.50
2019-05-23T14:58:49.775Z,3.53
2019-05-23T15:03:50.437Z,1.83
2019-05-23T15:08:51.995Z,1.23
2019-05-23T15:13:51.975Z,1.47
2019-05-23T15:18:52.002Z,1.40
2019-05-23T15:23:51.626Z,1.57
2019-05-23T15:28:51.406Z,1.20
2019-05-23T15:33:51.141Z,1.20
2019-05-23T15:39:07.677Z,1.53
2019-05-23T15:43:52.507Z,1.10
2019-05-23T15:48:52.933Z,1.17
2019-05-23T15:54:07.439Z,1.37
2019-05-23T15:59:19.414Z,1.07
2019-05-23T16:04:20.294Z,1.17
2019-05-23T16:09:29.470Z,1.47
2019-05-23T16:14:23.106Z,1.27
2019-05-23T16:19:24.358Z,1.23
2019-05-23T16:24:24.136Z,1.20
2019-05-23T16:29:24.199Z,1.00
2019-05-23T16:34:24.073Z,1.10
2019-05-23T16:39:23.953Z,5.93
2019-05-23T16:44:23.591Z,1.27
2019-05-23T16:49:23.551Z,1.37
2019-05-23T16:54:27.514Z,1.27
2019-05-23T16:59:35.668Z,1.20
2019-05-23T17:04:39.906Z,2.20
2019-05-23T17:10:07.687Z,1.47
2019-05-23T17:15:00.968Z,1.40
2019-05-23T17:20:19.872Z,1.83
2019-05-23T17:25:49.963Z,1.10
2019-05-23T17:30:52.962Z,2.00
2019-05-23T17:35:53.286Z,1.40
2019-05-23T17:40:53.089Z,1.10
2019-05-23T17:45:52.871Z,1.10
2019-05-23T17:50:52.667Z,1.23
2019-05-23T17:55:53.401Z,1.20
2019-05-23T18:00:53.172Z,1.50
2019-05-23T18:05:53.151Z,1.30
2019-05-23T18:10:53.691Z,1.10
2019-05-23T18:15:54.538Z,1.00
2019-05-23T18:20:55.141Z,1.10
2019-05-23T18:25:55.151Z,1.20
2019-05-23T18:31:14.543Z,1.20
2019-05-23T18:36:15.935Z,1.20
2019-05-23T18:41:16.358Z,1.53
2019-05-23T18:46:24.247Z,1.50
2019-05-23T18:51:24.432Z,1.50
2019-05-23T18:56:24.331Z,1.20
2019-05-23T19:01:25.781Z,2.20
2019-05-23T19:06:25.649Z,1.20
2019-05-23T19:11:25.902Z,1.60
2019-05-23T19:16:26.534Z,1.10
2019-05-23T19:21:28.238Z,1.70
2019-05-23T19:26:27.959Z,1.23
2019-05-23T19:31:27.942Z,1.73
2019-05-23T19:36:27.759Z,1.30
2019-05-23T19:41:36.805Z,3.80
2019-05-23T19:46:29.095Z,1.20
2019-05-23T19:51:29.089Z,1.20
2019-05-23T19:56:29.225Z,1.30
2019-05-23T20:01:32.398Z,1.53
2019-05-23T20:06:33.951Z,1.83
2019-05-23T20:11:33.914Z,3.67
2019-05-23T20:16:33.971Z,2.50
2019-05-23T20:21:33.737Z,2.10
2019-05-23T20:26:33.381Z,1.80
2019-05-23T20:31:33.165Z,3.20
2019-05-23T20:36:33.205Z,1.90
2019-05-23T20:41:33.271Z,2.60
2019-05-23T20:46:32.938Z,2.27
2019-05-23T20:51:32.802Z,2.10
2019-05-23T20:56:32.780Z,1.90
2019-05-23T21:01:36.014Z,3.60
2019-05-23T21:06:35.710Z,3.50
2019-05-23T21:11:35.747Z,1.97
2019-05-23T21:16:35.737Z,1.70
2019-05-23T21:21:35.747Z,2.00
2019-05-23T21:26:35.481Z,1.83
2019-05-23T21:31:35.610Z,2.90
2019-05-23T21:36:35.846Z,1.73
2019-05-23T21:41:36.606Z,1.93
2019-05-23T21:46:36.418Z,2.93
2019-05-23T21:51:36.117Z,2.00
2019-05-23T21:56:35.765Z,3.60
2019-05-23T22:01:50.036Z,2.30
2019-05-23T22:06:55.566Z,2.40
2019-05-23T22:11:55.861Z,3.30
2019-05-23T22:17:02.713Z,1.57
2019-05-23T22:22:02.863Z,1.70
2019-05-23T22:27:02.610Z,2.10
2019-05-23T22:32:02.327Z,2.20
2019-05-23T22:37:03.880Z,2.47
2019-05-23T22:42:05.937Z,2.30
2019-05-23T22:47:05.755Z,2.70
2019-05-23T22:52:05.909Z,3.20
2019-05-23T22:57:05.591Z,2.17
2019-05-23T23:02:06.974Z,2.43
2019-05-23T23:07:06.722Z,2.50
2019-05-23T23:12:07.022Z,2.63
2019-05-23T23:17:08.298Z,2.27
2019-05-23T23:22:10.577Z,2.50
2019-05-23T23:27:10.210Z,2.47
2019-05-23T23:32:10.806Z,3.57
2019-05-23T23:37:10.759Z,2.50
2019-05-23T23:48:34.715Z,3.87
2019-05-23T23:53:52.903Z,2.50
2019-05-23T23:58:51.750Z,3.00
